createdAt,value
2017-12-28T00:01:06.290Z,88.44
2017-12-28T00:02:16.420Z,88.35
2017-12-28T00:03:26.296Z,88.06
2017-12-28T00:04:36.422Z,88.06
2017-12-28T00:05:46.553Z,88.35
2017-12-28T00:06:56.413Z,88.25
2017-12-28T00:08:06.564Z,88.16
2017-12-28T00:09:16.791Z,87.77
2017-12-28T00:10:26.983Z,87.68
2017-12-28T00:11:37.264Z,87.97
2017-12-28T00:12:47.435Z,87.87
2017-12-28T00:13:57.545Z,87.77
2017-12-28T00:15:07.692Z,87.77
2017-12-28T00:16:17.844Z,87.77
2017-12-28T00:17:27.967Z,87.97
2017-12-28T00:18:38.275Z,87.87
2017-12-28T00:19:48.480Z,87.97
2017-12-28T00:20:58.624Z,87.77
2017-12-28T00:22:08.798Z,88.06
2017-12-28T00:23:18.930Z,87.97
2017-12-28T00:24:29.121Z,87.97
2017-12-28T00:25:39.361Z,87.87
2017-12-28T00:26:49.720Z,88.06
2017-12-28T00:27:59.894Z,87.4
2017-12-28T00:29:10.053Z,87.4
2017-12-28T00:30:20.195Z,87.49
2017-12-28T00:31:30.300Z,86.83
2017-12-28T00:32:40.430Z,87.21
2017-12-28T00:33:50.558Z,87.3
2017-12-28T00:35:00.673Z,86.93
2017-12-28T00:36:10.816Z,87.21
2017-12-28T00:37:21.220Z,87.12
2017-12-28T00:38:31.378Z,87.12
2017-12-28T00:39:41.505Z,87.12
2017-12-28T00:40:51.620Z,87.3
2017-12-28T00:42:01.737Z,87.3
2017-12-28T00:43:11.857Z,87.4
2017-12-28T00:44:22.013Z,87.12
2017-12-28T00:45:32.214Z,87.21
2017-12-28T00:46:42.371Z,87.25
2017-12-28T00:47:52.474Z,87.16
2017-12-28T00:49:02.584Z,86.87
2017-12-28T00:50:12.693Z,86.97
2017-12-28T00:51:22.864Z,86.87
2017-12-28T00:52:32.739Z,86.78
2017-12-28T00:53:42.851Z,86.78
2017-12-28T00:54:53.043Z,86.78
2017-12-28T00:56:03.161Z,87.06
2017-12-28T00:57:13.450Z,87.06
2017-12-28T00:58:23.922Z,86.49
2017-12-28T00:59:34.036Z,86.59
2017-12-28T01:00:44.197Z,86.97
2017-12-28T01:01:54.393Z,86.49
2017-12-28T01:03:04.786Z,86.49
2017-12-28T01:04:14.891Z,86.87
2017-12-28T01:05:25.039Z,86.87
2017-12-28T01:06:35.148Z,86.78
2017-12-28T01:07:45.302Z,86.87
2017-12-28T01:08:55.459Z,86.87
2017-12-28T01:10:05.573Z,86.97
2017-12-28T01:11:15.453Z,86.78
2017-12-28T01:12:25.741Z,87.06
2017-12-28T01:13:35.899Z,86.87
2017-12-28T01:14:45.790Z,86.68
2017-12-28T01:15:55.888Z,86.97
2017-12-28T01:17:05.751Z,86.97
2017-12-28T01:18:15.993Z,86.68
2017-12-28T01:19:26.087Z,86.78
2017-12-28T01:20:36.213Z,86.87
2017-12-28T01:21:46.319Z,86.68
2017-12-28T01:22:56.459Z,86.68
2017-12-28T01:24:06.610Z,86.64
2017-12-28T01:25:16.448Z,86.78
2017-12-28T01:26:26.575Z,86.93
2017-12-28T01:27:36.764Z,86.93
2017-12-28T01:28:46.776Z,86.93
2017-12-28T01:29:56.885Z,86.64
2017-12-28T01:31:07.001Z,86.74
2017-12-28T01:32:17.164Z,86.74
2017-12-28T01:33:27.297Z,86.93
2017-12-28T01:34:37.467Z,86.93
2017-12-28T01:35:47.206Z,86.64
2017-12-28T01:36:57.308Z,86.74
2017-12-28T01:38:07.423Z,86.93
2017-12-28T01:39:17.532Z,86.93
2017-12-28T01:40:27.841Z,87.02
2017-12-28T01:41:38.071Z,86.74
2017-12-28T01:42:48.181Z,86.74
2017-12-28T01:43:58.321Z,86.74
2017-12-28T01:45:08.449Z,86.93
2017-12-28T01:46:18.557Z,86.74
2017-12-28T01:47:28.683Z,87.59
2017-12-28T01:48:38.796Z,87.3
2017-12-28T01:49:48.975Z,87.3
2017-12-28T01:50:59.227Z,87.21
2017-12-28T01:52:09.525Z,87.3
2017-12-28T01:53:19.714Z,87.3
2017-12-28T01:54:29.846Z,87.12
2017-12-28T01:55:39.949Z,87.4
2017-12-28T01:56:50.061Z,87.21
2017-12-28T01:58:00.208Z,87.12
2017-12-28T01:59:10.420Z,87.21
2017-12-28T02:00:20.569Z,87.49
2017-12-28T02:01:30.729Z,87.21
2017-12-28T02:02:40.348Z,87.21
2017-12-28T02:03:50.460Z,87.3
2017-12-28T02:05:00.609Z,87.4
2017-12-28T02:06:10.721Z,87.21
2017-12-28T02:07:20.964Z,87.49
2017-12-28T02:08:30.821Z,87.21
2017-12-28T02:09:40.979Z,87.3
2017-12-28T02:10:51.125Z,87.21
2017-12-28T02:12:01.264Z,86.83
2017-12-28T02:13:11.462Z,86.83
2017-12-28T02:14:21.682Z,87.21
2017-12-28T02:15:31.802Z,87.02
2017-12-28T02:16:41.554Z,87.21
2017-12-28T02:17:51.655Z,87.21
2017-12-28T02:19:01.793Z,87.49
2017-12-28T02:20:11.632Z,87.4
2017-12-28T02:21:21.754Z,87.21
2017-12-28T02:22:31.952Z,87.21
2017-12-28T02:23:42.077Z,87.4
2017-12-28T02:24:52.325Z,87.21
2017-12-28T02:26:02.181Z,86.74
2017-12-28T02:27:12.281Z,86.83
2017-12-28T02:28:22.407Z,87.4
2017-12-28T02:29:32.525Z,87.4
2017-12-28T02:30:42.641Z,87.21
2017-12-28T02:31:52.741Z,87.49
2017-12-28T02:33:03.005Z,87.3
2017-12-28T02:34:13.130Z,87.21
2017-12-28T02:35:23.240Z,87.3
2017-12-28T02:36:33.179Z,87.02
2017-12-28T02:37:43.449Z,87.4
2017-12-28T02:38:53.621Z,87.4
2017-12-28T02:40:03.758Z,87.92
2017-12-28T02:41:13.602Z,87.64
2017-12-28T02:42:23.706Z,87.83
2017-12-28T02:43:33.839Z,87.73
2017-12-28T02:44:43.936Z,87.64
2017-12-28T02:45:54.032Z,88.4
2017-12-28T02:47:03.887Z,88.59
2017-12-28T02:48:13.985Z,88.21
2017-12-28T02:49:24.119Z,88.21
2017-12-28T02:50:34.000Z,87.92
2017-12-28T02:51:44.159Z,88.49
2017-12-28T02:52:54.012Z,89.15
2017-12-28T02:54:04.120Z,88.3
2017-12-28T02:55:13.967Z,88.06
2017-12-28T02:56:24.066Z,88.16
2017-12-28T02:57:34.181Z,88.92
2017-12-28T02:58:44.273Z,88.06
2017-12-28T02:59:54.400Z,88.06
2017-12-28T03:01:04.525Z,87.87
2017-12-28T03:02:14.619Z,87.97
2017-12-28T03:03:24.782Z,87.87
2017-12-28T03:04:34.953Z,87.97
2017-12-28T03:05:45.117Z,88.06
2017-12-28T03:06:55.333Z,87.87
2017-12-28T03:08:05.550Z,87.87
2017-12-28T03:09:15.455Z,88.25
2017-12-28T03:10:25.611Z,88.25
2017-12-28T03:11:35.717Z,88.25
2017-12-28T03:12:45.812Z,87.87
2017-12-28T03:13:55.941Z,88.06
2017-12-28T03:15:06.070Z,88.44
2017-12-28T03:16:16.245Z,88.25
2017-12-28T03:17:26.458Z,88.25
2017-12-28T03:18:36.740Z,88.63
2017-12-28T03:19:46.908Z,88.35
2017-12-28T03:20:57.046Z,88.35
2017-12-28T03:22:07.304Z,88.25
2017-12-28T03:23:17.430Z,88.06
2017-12-28T03:24:27.548Z,88.73
2017-12-28T03:25:37.471Z,89.11
2017-12-28T03:26:47.568Z,88.73
2017-12-28T03:27:57.688Z,88.44
2017-12-28T03:29:07.783Z,88.25
2017-12-28T03:30:17.969Z,88.44
2017-12-28T03:31:28.166Z,88.06
2017-12-28T03:32:38.366Z,88.35
2017-12-28T03:33:48.478Z,87.97
2017-12-28T03:34:58.572Z,87.97
2017-12-28T03:36:08.429Z,87.87
2017-12-28T03:37:18.528Z,87.97
2017-12-28T03:38:28.568Z,87.87
2017-12-28T03:39:38.440Z,88.25
2017-12-28T03:40:48.589Z,88.06
2017-12-28T03:41:58.480Z,88.06
2017-12-28T03:43:08.584Z,88.44
2017-12-28T03:44:18.712Z,88.25
2017-12-28T03:45:28.906Z,88.25
2017-12-28T03:46:39.024Z,87.97
2017-12-28T03:47:48.949Z,88.25
2017-12-28T03:48:59.077Z,88.44
2017-12-28T03:50:09.221Z,88.92
2017-12-28T03:51:19.448Z,88.44
2017-12-28T03:52:29.316Z,88.25
2017-12-28T03:53:39.418Z,88.25
2017-12-28T03:54:49.586Z,88.25
2017-12-28T03:55:59.991Z,88.29
2017-12-28T03:57:11.100Z,88.48
2017-12-28T03:58:21.004Z,88.44
2017-12-28T03:59:31.109Z,88.1
2017-12-28T04:00:40.955Z,88.96
2017-12-28T04:01:51.050Z,87.92
2017-12-28T04:03:01.202Z,88.29
2017-12-28T04:04:11.340Z,88.29
2017-12-28T04:05:21.209Z,88.77
2017-12-28T04:06:31.332Z,88.2
2017-12-28T04:07:41.451Z,88.1
2017-12-28T04:08:51.812Z,88.2
2017-12-28T04:10:02.039Z,88.96
2017-12-28T04:11:11.939Z,88.2
2017-12-28T04:12:22.050Z,88.77
2017-12-28T04:13:32.231Z,88.29
2017-12-28T04:14:42.358Z,88.1
2017-12-28T04:15:52.481Z,88.29
2017-12-28T04:17:02.591Z,88.29
2017-12-28T04:18:12.697Z,88.29
2017-12-28T04:19:22.597Z,88.39
2017-12-28T04:20:32.716Z,88.29
2017-12-28T04:21:42.824Z,88.1
2017-12-28T04:22:53.039Z,88.39
2017-12-28T04:24:03.183Z,88.01
2017-12-28T04:25:13.419Z,88.96
2017-12-28T04:26:23.603Z,88.29
2017-12-28T04:27:33.738Z,87.92
2017-12-28T04:28:43.493Z,88.48
2017-12-28T04:29:53.644Z,88.48
2017-12-28T04:31:03.494Z,87.82
2017-12-28T04:32:13.332Z,88.1
2017-12-28T04:33:23.492Z,87.82
2017-12-28T04:34:33.621Z,88.2
2017-12-28T04:35:43.790Z,88.2
2017-12-28T04:36:53.644Z,87.82
2017-12-28T04:38:03.239Z,87.92
2017-12-28T04:39:13.390Z,87.73
2017-12-28T04:40:23.478Z,87.63
2017-12-28T04:41:34.399Z,87.92
2017-12-28T04:42:44.509Z,87.82
2017-12-28T04:43:54.630Z,87.73
2017-12-28T04:45:04.759Z,87.63
2017-12-28T04:46:14.900Z,87.73
2017-12-28T04:47:25.012Z,87.82
2017-12-28T04:48:35.126Z,88.01
2017-12-28T04:49:45.241Z,87.92
2017-12-28T04:50:54.791Z,87.92
2017-12-28T04:52:04.906Z,87.82
2017-12-28T04:53:14.668Z,87.92
2017-12-28T04:54:24.866Z,87.63
2017-12-28T04:55:34.968Z,87.82
2017-12-28T04:56:44.828Z,87.92
2017-12-28T04:57:54.929Z,87.92
2017-12-28T04:59:05.105Z,88.01
2017-12-28T05:00:14.892Z,88.1
2017-12-28T05:01:25.015Z,87.63
2017-12-28T05:02:35.149Z,88.1
2017-12-28T05:03:45.301Z,87.92
2017-12-28T05:04:54.858Z,87.63
2017-12-28T05:06:04.739Z,87.92
2017-12-28T05:07:14.888Z,87.73
2017-12-28T05:08:24.505Z,87.63
2017-12-28T05:09:34.594Z,87.82
2017-12-28T05:10:44.711Z,87.73
2017-12-28T05:11:54.804Z,87.82
2017-12-28T05:13:04.687Z,87.63
2017-12-28T05:14:14.788Z,87.73
2017-12-28T05:15:24.926Z,87.73
2017-12-28T05:16:35.040Z,87.54
2017-12-28T05:17:45.192Z,87.82
2017-12-28T05:18:55.302Z,87.82
2017-12-28T05:20:05.400Z,87.92
2017-12-28T05:21:15.390Z,87.92
2017-12-28T05:22:25.528Z,87.73
2017-12-28T05:23:35.732Z,88.29
2017-12-28T05:24:46.022Z,88.29
2017-12-28T05:25:56.314Z,88.96
2017-12-28T05:27:06.455Z,88.2
2017-12-28T05:28:16.585Z,88.29
2017-12-28T05:29:26.709Z,88.01
2017-12-28T05:30:36.561Z,88.2
2017-12-28T05:31:46.667Z,89.06
2017-12-28T05:32:56.775Z,88.96
2017-12-28T05:34:06.895Z,88.96
2017-12-28T05:35:17.073Z,89.15
2017-12-28T05:36:26.686Z,88.87
2017-12-28T05:37:37.761Z,88.77
2017-12-28T05:38:47.858Z,88.96
2017-12-28T05:39:57.952Z,89.72
2017-12-28T05:41:07.672Z,89.34
2017-12-28T05:42:17.436Z,89.25
2017-12-28T05:43:27.580Z,89.43
2017-12-28T05:44:37.755Z,89.91
2017-12-28T05:45:48.077Z,89.53
2017-12-28T05:46:58.373Z,90
2017-12-28T05:48:08.224Z,89.81
2017-12-28T05:49:18.404Z,89.53
2017-12-28T05:50:28.514Z,89.25
2017-12-28T05:51:38.366Z,89.34
2017-12-28T05:52:48.246Z,88.96
2017-12-28T05:53:58.178Z,89.06
2017-12-28T05:55:08.389Z,88.77
2017-12-28T05:56:18.243Z,88.01
2017-12-28T05:57:28.492Z,88.39
2017-12-28T05:58:38.302Z,89.15
2017-12-28T05:59:48.402Z,88.34
2017-12-28T06:00:58.513Z,88.01
2017-12-28T06:02:08.613Z,88.29
2017-12-28T06:03:18.703Z,88.29
2017-12-28T06:04:28.292Z,88.34
2017-12-28T06:05:38.443Z,87.96
2017-12-28T06:06:48.293Z,87.73
2017-12-28T06:07:58.134Z,87.92
2017-12-28T06:09:08.279Z,87.92
2017-12-28T06:10:18.392Z,87.54
2017-12-28T06:11:28.522Z,87.35
2017-12-28T06:12:38.650Z,87.45
2017-12-28T06:13:48.253Z,87.16
2017-12-28T06:14:58.355Z,86.87
2017-12-28T06:16:08.487Z,87.25
2017-12-28T06:17:18.621Z,87.35
2017-12-28T06:18:28.751Z,86.78
2017-12-28T06:19:38.761Z,86.97
2017-12-28T06:20:49.031Z,86.78
2017-12-28T06:21:59.160Z,86.68
2017-12-28T06:23:09.082Z,86.87
2017-12-28T06:24:19.228Z,86.97
2017-12-28T06:25:29.346Z,86.49
2017-12-28T06:26:39.453Z,86.3
2017-12-28T06:27:49.784Z,85.93
2017-12-28T06:28:59.977Z,86.44
2017-12-28T06:30:10.166Z,86.59
2017-12-28T06:31:20.287Z,86.16
2017-12-28T06:32:30.488Z,85.97
2017-12-28T06:33:40.587Z,86.07
2017-12-28T06:34:50.722Z,85.97
2017-12-28T06:36:00.906Z,85.59
2017-12-28T06:37:10.663Z,86.21
2017-12-28T06:38:20.766Z,85.97
2017-12-28T06:39:30.976Z,85.87
2017-12-28T06:40:41.164Z,86.16
2017-12-28T06:41:51.415Z,86.07
2017-12-28T06:43:01.652Z,86.07
2017-12-28T06:44:11.856Z,85.78
2017-12-28T06:45:22.046Z,85.4
2017-12-28T06:46:32.145Z,85.87
2017-12-28T06:47:41.996Z,85.68
2017-12-28T06:48:52.255Z,85.87
2017-12-28T06:50:02.480Z,85.68
2017-12-28T06:51:12.662Z,86.25
2017-12-28T06:52:22.918Z,86.07
2017-12-28T06:53:32.790Z,86.35
2017-12-28T06:54:42.898Z,86.54
2017-12-28T06:55:53.096Z,86.54
2017-12-28T06:57:02.983Z,85.97
2017-12-28T06:58:13.089Z,86.25
2017-12-28T06:59:23.218Z,86.16
2017-12-28T07:00:33.489Z,86.07
2017-12-28T07:01:43.426Z,86.07
2017-12-28T07:02:53.539Z,86.16
2017-12-28T07:04:03.448Z,85.97
2017-12-28T07:05:13.551Z,86.16
2017-12-28T07:06:23.703Z,86.16
2017-12-28T07:07:33.310Z,86.59
2017-12-28T07:08:43.470Z,85.97
2017-12-28T07:09:53.566Z,86.16
2017-12-28T07:11:03.417Z,85.87
2017-12-28T07:12:13.530Z,85.87
2017-12-28T07:13:23.647Z,85.97
2017-12-28T07:14:33.497Z,85.87
2017-12-28T07:15:43.597Z,86.16
2017-12-28T07:16:53.699Z,85.87
2017-12-28T07:18:03.839Z,85.97
2017-12-28T07:19:14.174Z,86.3
2017-12-28T07:20:24.340Z,85.83
2017-12-28T07:21:34.433Z,86.54
2017-12-28T07:22:44.528Z,85.93
2017-12-28T07:23:55.623Z,86.02
2017-12-28T07:25:05.747Z,86.21
2017-12-28T07:26:15.974Z,86.11
2017-12-28T07:27:26.172Z,86.11
2017-12-28T07:28:36.315Z,86.68
2017-12-28T07:29:46.492Z,86.16
2017-12-28T07:30:56.641Z,86.11
2017-12-28T07:32:06.381Z,86.11
2017-12-28T07:33:16.486Z,86.21
2017-12-28T07:34:26.328Z,86.11
2017-12-28T07:35:36.483Z,86.21
2017-12-28T07:36:46.598Z,86.59
2017-12-28T07:37:56.801Z,86.21
2017-12-28T07:39:07.040Z,86.59
2017-12-28T07:40:17.184Z,86.97
2017-12-28T07:41:27.367Z,86.78
2017-12-28T07:42:37.578Z,87.06
2017-12-28T07:43:47.760Z,86.78
2017-12-28T07:44:57.979Z,86.78
2017-12-28T07:46:08.306Z,86.87
2017-12-28T07:47:18.517Z,86.68
2017-12-28T07:48:28.836Z,86.59
2017-12-28T07:49:38.704Z,86.87
2017-12-28T07:50:48.827Z,86.97
2017-12-28T07:51:58.939Z,86.97
2017-12-28T07:53:09.096Z,86.68
2017-12-28T07:54:19.325Z,86.78
2017-12-28T07:55:29.544Z,86.87
2017-12-28T07:56:39.770Z,87.06
2017-12-28T07:57:49.949Z,86.97
2017-12-28T07:59:00.054Z,86.3
2017-12-28T08:00:10.335Z,86.78
2017-12-28T08:01:20.446Z,86.78
2017-12-28T08:02:30.547Z,86.78
2017-12-28T08:03:40.647Z,86.97
2017-12-28T08:04:50.932Z,86.49
2017-12-28T08:06:01.151Z,86.59
2017-12-28T08:07:10.986Z,86.21
2017-12-28T08:08:20.827Z,86.68
2017-12-28T08:09:30.927Z,85.93
2017-12-28T08:10:41.067Z,86.21
2017-12-28T08:11:51.304Z,86.02
2017-12-28T08:13:01.450Z,86.11
2017-12-28T08:14:11.600Z,86.02
2017-12-28T08:15:21.801Z,86.3
2017-12-28T08:16:32.020Z,86.02
2017-12-28T08:17:42.339Z,86.11
2017-12-28T08:18:52.501Z,86.11
2017-12-28T08:20:02.394Z,86.11
2017-12-28T08:21:12.533Z,86.02
2017-12-28T08:22:22.702Z,86.02
2017-12-28T08:23:32.598Z,86.11
2017-12-28T08:24:42.787Z,86.11
2017-12-28T08:25:52.630Z,85.93
2017-12-28T08:27:02.878Z,85.74
2017-12-28T08:28:12.991Z,86.3
2017-12-28T08:29:23.086Z,86.49
2017-12-28T08:30:33.207Z,86.11
2017-12-28T08:31:43.366Z,86.59
2017-12-28T08:32:53.491Z,86.97
2017-12-28T08:34:03.667Z,86.78
2017-12-28T08:35:13.525Z,86.97
2017-12-28T08:36:23.662Z,86.11
2017-12-28T08:37:33.502Z,86.49
2017-12-28T08:38:43.608Z,86.87
2017-12-28T08:39:53.719Z,86.59
2017-12-28T08:41:03.853Z,86.11
2017-12-28T08:42:13.989Z,86.3
2017-12-28T08:43:24.252Z,86.49
2017-12-28T08:44:34.166Z,85.93
2017-12-28T08:45:44.036Z,86.59
2017-12-28T08:46:54.193Z,86.49
2017-12-28T08:48:04.309Z,86.59
2017-12-28T08:49:14.449Z,86.78
2017-12-28T08:50:24.788Z,86.3
2017-12-28T08:51:35.056Z,86.59
2017-12-28T08:52:44.916Z,86.3
2017-12-28T08:53:55.024Z,85.93
2017-12-28T08:55:05.142Z,85.93
2017-12-28T08:56:15.264Z,86.02
2017-12-28T08:57:25.485Z,86.21
2017-12-28T08:58:35.807Z,86.21
2017-12-28T08:59:45.944Z,86.11
2017-12-28T09:00:56.135Z,85.97
2017-12-28T09:02:05.988Z,86.3
2017-12-28T09:03:16.089Z,86.35
2017-12-28T09:04:27.249Z,85.97
2017-12-28T09:05:37.342Z,86.35
2017-12-28T09:06:47.189Z,85.97
2017-12-28T09:07:57.335Z,86.35
2017-12-28T09:09:07.447Z,85.87
2017-12-28T09:10:17.614Z,85.97
2017-12-28T09:11:27.497Z,85.97
2017-12-28T09:12:37.168Z,85.78
2017-12-28T09:13:47.300Z,85.49
2017-12-28T09:14:57.433Z,85.4
2017-12-28T09:16:07.579Z,85.59
2017-12-28T09:17:17.784Z,85.49
2017-12-28T09:18:27.693Z,85.21
2017-12-28T09:19:37.562Z,85.49
2017-12-28T09:20:47.676Z,85.4
2017-12-28T09:21:57.856Z,85.4
2017-12-28T09:23:07.985Z,85.49
2017-12-28T09:24:18.108Z,85.78
2017-12-28T09:25:28.317Z,85.11
2017-12-28T09:26:38.529Z,85.68
2017-12-28T09:27:48.671Z,85.21
2017-12-28T09:28:59.774Z,85.4
2017-12-28T09:30:09.895Z,85.21
2017-12-28T09:31:20.027Z,85.49
2017-12-28T09:32:30.201Z,85.49
2017-12-28T09:33:40.321Z,85.4
2017-12-28T09:34:50.473Z,85.11
2017-12-28T09:36:00.634Z,85.3
2017-12-28T09:37:10.571Z,85.4
2017-12-28T09:38:20.696Z,85.21
2017-12-28T09:39:30.810Z,85.49
2017-12-28T09:40:40.945Z,85.78
2017-12-28T09:41:51.062Z,85.68
2017-12-28T09:43:01.197Z,85.49
2017-12-28T09:44:11.461Z,85.3
2017-12-28T09:45:21.689Z,85.78
2017-12-28T09:46:31.824Z,85.68
2017-12-28T09:47:41.700Z,85.87
2017-12-28T09:48:51.866Z,85.49
2017-12-28T09:50:01.994Z,85.59
2017-12-28T09:51:12.149Z,86.07
2017-12-28T09:52:22.275Z,85.11
2017-12-28T09:53:32.401Z,85.3
2017-12-28T09:54:42.684Z,84.92
2017-12-28T09:55:52.833Z,84.92
2017-12-28T09:57:02.697Z,85.02
2017-12-28T09:58:12.819Z,85.11
2017-12-28T09:59:22.936Z,85.11
2017-12-28T10:00:33.157Z,84.92
2017-12-28T10:01:43.349Z,85.02
2017-12-28T10:02:53.584Z,84.83
2017-12-28T10:04:03.718Z,84.83
2017-12-28T10:05:13.983Z,84.92
2017-12-28T10:06:24.095Z,84.83
2017-12-28T10:07:35.364Z,84.74
2017-12-28T10:08:45.545Z,84.55
2017-12-28T10:09:55.445Z,84.36
2017-12-28T10:11:05.585Z,84.26
2017-12-28T10:12:15.765Z,84.17
2017-12-28T10:13:25.883Z,84.36
2017-12-28T10:14:35.987Z,84.36
2017-12-28T10:15:46.116Z,84.17
2017-12-28T10:16:56.236Z,84.4
2017-12-28T10:18:06.376Z,84.3
2017-12-28T10:19:16.541Z,84.21
2017-12-28T10:20:26.771Z,84.11
2017-12-28T10:21:36.901Z,84.11
2017-12-28T10:22:47.032Z,83.73
2017-12-28T10:23:57.186Z,83.92
2017-12-28T10:25:07.291Z,84.3
2017-12-28T10:26:17.430Z,84.11
2017-12-28T10:27:27.698Z,84.21
2017-12-28T10:28:37.938Z,84.11
2017-12-28T10:29:48.227Z,84.4
2017-12-28T10:30:58.436Z,84.4
2017-12-28T10:32:08.631Z,83.64
2017-12-28T10:33:18.882Z,83.73
2017-12-28T10:34:29.108Z,83.64
2017-12-28T10:35:39.244Z,83.54
2017-12-28T10:36:50.524Z,83.92
2017-12-28T10:38:00.680Z,83.92
2017-12-28T10:39:10.833Z,83.92
2017-12-28T10:40:20.965Z,83.54
2017-12-28T10:41:30.871Z,83.36
2017-12-28T10:42:41.030Z,83.54
2017-12-28T10:43:51.174Z,84.3
2017-12-28T10:45:01.292Z,84.3
2017-12-28T10:46:11.413Z,84.3
2017-12-28T10:47:21.566Z,83.73
2017-12-28T10:48:31.745Z,84.21
2017-12-28T10:49:42.122Z,84.01
2017-12-28T10:50:52.296Z,84.01
2017-12-28T10:52:02.455Z,84.11
2017-12-28T10:53:12.660Z,84.11
2017-12-28T10:54:22.845Z,84.3
2017-12-28T10:55:32.705Z,83.64
2017-12-28T10:56:42.841Z,83.64
2017-12-28T10:57:52.973Z,83.92
2017-12-28T10:59:03.126Z,84.4
2017-12-28T11:00:13.272Z,84.4
2017-12-28T11:01:23.517Z,84.3
2017-12-28T11:02:33.428Z,84.4
2017-12-28T11:03:43.540Z,83.54
2017-12-28T11:04:53.816Z,83.92
2017-12-28T11:06:04.100Z,84.01
2017-12-28T11:07:14.262Z,84.3
2017-12-28T11:08:24.257Z,84.11
2017-12-28T11:09:34.390Z,84.21
2017-12-28T11:10:44.578Z,84.3
2017-12-28T11:11:55.203Z,84.11
2017-12-28T11:13:05.341Z,84.4
2017-12-28T11:14:16.565Z,84.3
2017-12-28T11:15:26.740Z,83.83
2017-12-28T11:16:36.895Z,83.64
2017-12-28T11:17:47.151Z,83.64
2017-12-28T11:18:57.272Z,83.92
2017-12-28T11:20:07.397Z,83.45
2017-12-28T11:21:17.543Z,83.73
2017-12-28T11:22:27.733Z,83.26
2017-12-28T11:23:37.903Z,83.45
2017-12-28T11:24:48.047Z,83.07
2017-12-28T11:25:58.215Z,83.07
2017-12-28T11:27:08.464Z,83.07
2017-12-28T11:28:18.454Z,83.07
2017-12-28T11:29:28.647Z,83.54
2017-12-28T11:30:38.523Z,82.5
2017-12-28T11:31:48.694Z,83.16
2017-12-28T11:32:58.828Z,83.07
2017-12-28T11:34:08.947Z,83.07
2017-12-28T11:35:19.121Z,83.45
2017-12-28T11:36:29.425Z,82.97
2017-12-28T11:37:39.635Z,83.26
2017-12-28T11:38:49.833Z,82.78
2017-12-28T11:40:00.084Z,83.07
2017-12-28T11:41:10.273Z,83.07
2017-12-28T11:42:20.445Z,82.69
2017-12-28T11:43:30.365Z,83.16
2017-12-28T11:44:40.529Z,83.07
2017-12-28T11:45:50.679Z,82.88
2017-12-28T11:47:00.550Z,82.69
2017-12-28T11:48:10.688Z,83.07
2017-12-28T11:49:20.874Z,82.88
2017-12-28T11:50:30.999Z,82.78
2017-12-28T11:51:41.160Z,82.88
2017-12-28T11:52:51.298Z,82.78
2017-12-28T11:54:01.431Z,82.78
2017-12-28T11:55:11.560Z,82.69
2017-12-28T11:56:21.680Z,82.97
2017-12-28T11:57:31.611Z,82.21
2017-12-28T11:58:41.729Z,81.93
2017-12-28T11:59:51.874Z,82.12
2017-12-28T12:01:02.083Z,82.03
2017-12-28T12:02:12.244Z,81.84
2017-12-28T12:03:22.036Z,82.31
2017-12-28T12:04:32.995Z,82.4
2017-12-28T12:05:43.092Z,82.03
2017-12-28T12:06:53.259Z,82.03
2017-12-28T12:08:03.411Z,82.21
2017-12-28T12:09:13.844Z,82.12
2017-12-28T12:10:23.988Z,82.03
2017-12-28T12:11:34.161Z,81.17
2017-12-28T12:12:44.374Z,81.26
2017-12-28T12:13:54.557Z,81.36
2017-12-28T12:15:04.702Z,81.26
2017-12-28T12:16:14.851Z,81.17
2017-12-28T12:17:24.981Z,81.45
2017-12-28T12:18:35.125Z,80.98
2017-12-28T12:19:45.367Z,80.69
2017-12-28T12:20:55.534Z,81.17
2017-12-28T12:22:05.674Z,80.98
2017-12-28T12:23:15.818Z,80.79
2017-12-28T12:24:26.026Z,80.79
2017-12-28T12:25:36.244Z,80.79
2017-12-28T12:26:46.031Z,80.69
2017-12-28T12:27:56.235Z,80.22
2017-12-28T12:29:06.409Z,80.88
2017-12-28T12:30:16.649Z,80.41
2017-12-28T12:31:26.832Z,80.41
2017-12-28T12:32:37.053Z,80.26
2017-12-28T12:33:47.444Z,80.51
2017-12-28T12:34:57.670Z,80.26
2017-12-28T12:36:07.560Z,80.03
2017-12-28T12:37:17.692Z,80.55
2017-12-28T12:38:27.523Z,80.26
2017-12-28T12:39:37.512Z,79.94
2017-12-28T12:40:47.717Z,79.65
2017-12-28T12:41:57.885Z,79.46
2017-12-28T12:43:08.129Z,79.55
2017-12-28T12:44:18.357Z,79.46
2017-12-28T12:45:28.535Z,79.27
2017-12-28T12:46:38.719Z,79.17
2017-12-28T12:47:48.667Z,78.89
2017-12-28T12:48:58.572Z,78.93
2017-12-28T12:50:08.465Z,79.5
2017-12-28T12:51:19.594Z,79.17
2017-12-28T12:52:30.774Z,79.12
2017-12-28T12:53:40.896Z,78.64
2017-12-28T12:54:51.997Z,78.64
2017-12-28T12:56:02.123Z,78.45
2017-12-28T12:57:12.389Z,77.51
2017-12-28T12:58:22.501Z,77.6
2017-12-28T12:59:32.737Z,77.22
2017-12-28T13:00:42.944Z,77.94
2017-12-28T13:01:53.154Z,78.13
2017-12-28T13:03:03.040Z,78.08
2017-12-28T13:04:13.894Z,77.79
2017-12-28T13:05:24.031Z,76.93
2017-12-28T13:06:33.927Z,76.93
2017-12-28T13:07:43.843Z,76.61
2017-12-28T13:08:54.016Z,76.32
2017-12-28T13:10:04.173Z,76.56
2017-12-28T13:11:13.815Z,76.93
2017-12-28T13:12:23.747Z,76.71
2017-12-28T13:13:33.929Z,76.71
2017-12-28T13:14:44.067Z,76.71
2017-12-28T13:15:54.187Z,76.99
2017-12-28T13:17:04.352Z,76.99
2017-12-28T13:18:14.587Z,76.8
2017-12-28T13:19:24.721Z,76.8
2017-12-28T13:20:34.900Z,76.8
2017-12-28T13:21:45.042Z,76.8
2017-12-28T13:22:55.180Z,76.32
2017-12-28T13:24:05.377Z,76.61
2017-12-28T13:25:15.511Z,76.52
2017-12-28T13:26:25.660Z,76.32
2017-12-28T13:27:35.801Z,76.8
2017-12-28T13:28:45.924Z,77.09
2017-12-28T13:29:56.109Z,76.61
2017-12-28T13:31:06.299Z,77.09
2017-12-28T13:32:16.467Z,76.71
2017-12-28T13:33:27.695Z,77.09
2017-12-28T13:34:37.884Z,76.9
2017-12-28T13:35:48.145Z,76.42
2017-12-28T13:36:58.313Z,76.52
2017-12-28T13:38:08.535Z,75.67
2017-12-28T13:39:18.726Z,75.67
2017-12-28T13:40:28.898Z,75.76
2017-12-28T13:41:39.041Z,75.67
2017-12-28T13:42:49.150Z,75.47
2017-12-28T13:43:59.312Z,75.38
2017-12-28T13:45:09.177Z,75.85
2017-12-28T13:46:19.289Z,75.76
2017-12-28T13:47:29.420Z,76.14
2017-12-28T13:48:39.569Z,76.23
2017-12-28T13:49:49.579Z,75.38
2017-12-28T13:50:59.786Z,75.67
2017-12-28T13:52:09.930Z,75.47
2017-12-28T13:53:19.801Z,75.67
2017-12-28T13:54:29.952Z,75.47
2017-12-28T13:55:40.056Z,75.28
2017-12-28T13:56:50.238Z,75.38
2017-12-28T13:58:00.499Z,75.57
2017-12-28T13:59:11.678Z,75.47
2017-12-28T14:00:21.836Z,75.57
2017-12-28T14:01:31.958Z,75.67
2017-12-28T14:02:42.068Z,75.38
2017-12-28T14:03:52.213Z,75.85
2017-12-28T14:05:02.337Z,75.28
2017-12-28T14:06:12.121Z,75.38
2017-12-28T14:07:22.310Z,75.57
2017-12-28T14:08:32.434Z,75.47
2017-12-28T14:09:42.629Z,74.9
2017-12-28T14:10:52.805Z,74.33
2017-12-28T14:12:03.037Z,73.48
2017-12-28T14:13:13.191Z,73.57
2017-12-28T14:14:23.376Z,73.76
2017-12-28T14:15:33.514Z,73.76
2017-12-28T14:16:43.651Z,73.76
2017-12-28T14:17:53.604Z,73.57
2017-12-28T14:19:03.785Z,73.1
2017-12-28T14:20:13.929Z,73
2017-12-28T14:21:24.052Z,72.81
2017-12-28T14:22:34.222Z,73.38
2017-12-28T14:23:45.341Z,73.57
2017-12-28T14:24:55.219Z,73.38
2017-12-28T14:26:05.387Z,73.48
2017-12-28T14:27:15.630Z,73.19
2017-12-28T14:28:25.786Z,73.96
2017-12-28T14:29:35.920Z,73
2017-12-28T14:30:45.805Z,72.72
2017-12-28T14:31:55.937Z,72.72
2017-12-28T14:33:06.170Z,73.19
2017-12-28T14:34:16.333Z,73
2017-12-28T14:35:26.317Z,73.1
2017-12-28T14:36:36.417Z,73.19
2017-12-28T14:37:46.575Z,73.1
2017-12-28T14:38:56.782Z,73.57
2017-12-28T14:40:06.926Z,73.38
2017-12-28T14:41:17.046Z,73.67
2017-12-28T14:42:26.926Z,73.76
2017-12-28T14:43:37.120Z,73.19
2017-12-28T14:44:47.342Z,73.86
2017-12-28T14:45:57.222Z,74.05
2017-12-28T14:47:07.382Z,73.96
2017-12-28T14:48:17.585Z,73.92
2017-12-28T14:49:27.451Z,73.54
2017-12-28T14:50:37.585Z,74.01
2017-12-28T14:51:47.739Z,74.15
2017-12-28T14:52:57.655Z,74.01
2017-12-28T14:54:07.537Z,74.2
2017-12-28T14:55:17.715Z,74.58
2017-12-28T14:56:27.726Z,75.15
2017-12-28T14:57:37.928Z,75.05
2017-12-28T14:58:47.872Z,75.05
2017-12-28T14:59:58.016Z,75.34
2017-12-28T15:01:08.139Z,75.53
2017-12-28T15:02:18.371Z,75.81
2017-12-28T15:03:28.554Z,75.81
2017-12-28T15:04:38.669Z,75.72
2017-12-28T15:05:48.604Z,75.53
2017-12-28T15:06:58.574Z,75.62